Sterling, MI (48659)

11:17 PM EST on February 09, 2016 (GMT -0500)
Cole Canoe Base | | Change Station
CLOSE
Current Station
Personal Weather Station
Location: Alger, MI
Elevation: 807 ft
Nearby Weather Stations

Elev 807 ft 44.18 °N, 84.07 °W | Updated 29 seconds ago

Snow
Snow
19.9 °F
Feels Like 20 °F
N
0.0
Wind Variable Wind from SSW

Today
High -- | Low -- °F
--% Chance of Precip.
Yesterday
High -- | Low -- °F
Precip. -- in
Pressure 29.71 in
Visibility 10.0 miles
Clouds Scattered Clouds 2200 ft
Mostly Cloudy 5500 ft
Overcast 7000 ft
Windchill 20 °F
Dew Point 19 °F
Humidity 97%
Rainfall 0.00 in
Snow Depth Not available.
7:44 AM 5:56 PM
Waxing Crescent, 3% visible
METAR KIKW 100413Z AUTO 30007KT 10SM -SN SCT022 BKN055 OVC070 M05/M09 A2971 RMK AO2 T10481095
Pressure 29.71 in
Visibility 10.0 miles
Clouds Scattered Clouds 2200 ft
Mostly Cloudy 5500 ft
Overcast 7000 ft
Windchill 20 °F
Dew Point 19 °F
Humidity 97%
Rainfall 0.00 in
Snow Depth Not available.
7:44 AM 5:56 PM
Waxing Crescent, 3% visible
METAR KIKW 100413Z AUTO 30007KT 10SM -SN SCT022 BKN055 OVC070 M05/M09 A2971 RMK AO2 T10481095

10-Day Weather Forecast

Almanac

Astronomy

Feb. 09, 2016 Rise Set
Actual Time
Civil Twilight
Nautical Twilight
Astronomical Twilight
Moon
Length of Visible Light
Length of Day
Tomorrow will be .
, % of the Moon is Illuminated

Today's Extremes

State Highs State Lows

Community

WunderPhotos

Upload Photos

1,891,796 photos uploaded!

WunderBlog® & News

Nearby

Air Quality

  Air Quality AQ Index Pollutant
Not available.

Snow Depth

Station Depth Elevation

Earthquake Activity

City Distance Mag. Time & Date
Minimum magnitude displayed is 2.5.

Coastal Water Temperatures

Place Temperature

Stations

Nearby Weather Stations

Station Location Temp. Windchill Dew Point Humidity Wind Precip. Elev Updated Type
                   

Watches & Warnings

There are currently no watches in effect.